Time;durP1;ratioP1;P1;durP2;ratioP2;P2;SDS_P1;SDS_P2;PMS_P1;PMS_P2;Temp;Humidity;BMP_temperature;BMP_pressure;BME280_temperature;BME280_humidity;BME280_pressure;Samples;Min_cycle;Max_cycle;Signal;HPM_P1;HPM_P2
2023/03/05 00:01:29;;;;;;;;;;;4.20;99.90;;;3.43;100.00;98007.16;4981250;28;1402;-80
2023/03/05 00:03:56;;;;;;;;;;;4.20;99.90;;;3.31;100.00;98004.69;4996436;28;1895;-80
2023/03/05 00:06:26;;;;;;;;;;;4.20;99.90;;;3.29;100.00;98003.84;4975667;28;1435;-80
2023/03/05 00:08:55;;;;;;;;;;;4.20;99.90;;;3.32;100.00;98003.81;4962384;28;1598;-80
2023/03/05 00:11:26;;;;;;;;;;;4.20;99.90;;;3.46;100.00;97996.84;4980816;28;1391;-80
2023/03/05 00:13:54;;;;;;;;;;;4.20;99.90;;;3.48;100.00;97997.69;4968309;28;1489;-80
2023/03/05 00:16:25;;;;;;;;;;;4.20;99.90;;;3.38;100.00;97996.06;4966710;28;1540;-80
2023/03/05 00:18:53;;;;;;;;;;;4.20;99.90;;;3.49;100.00;97985.69;4977635;28;1452;-81
2023/03/05 00:21:26;;;;;;;;;;;4.20;99.90;;;3.33;100.00;97993.53;4974121;28;1458;-80
2023/03/05 00:23:55;;;;;;;;;;;4.10;99.90;;;3.26;100.00;97996.13;4974394;28;1906;-80
2023/03/05 00:26:24;;;;;;;;;;;4.10;99.90;;;3.25;100.00;97997.84;4976969;28;1454;-81
2023/03/05 00:28:52;;;;;;;;;;;4.10;99.90;;;3.19;100.00;97994.47;4976132;28;1428;-81
2023/03/05 00:31:22;;;;;;;;;;;4.10;99.90;;;3.18;100.00;97998.75;4974021;28;1508;-81
2023/03/05 00:33:53;;;;;;;;;;;4.10;99.90;;;3.24;100.00;97988.47;4991303;28;1701;-81
2023/03/05 00:36:20;;;;;;;;;;;4.00;99.90;;;3.15;100.00;97985.97;4990512;28;1380;-81
2023/03/05 00:38:48;;;;;;;;;;;4.00;99.90;;;3.13;100.00;97987.69;4975054;28;1367;-80
2023/03/05 00:41:15;;;;;;;;;;;4.00;99.90;;;3.06;100.00;97986.03;4976232;28;1474;-80
2023/03/05 00:43:45;;;;;;;;;;;3.90;99.90;;;3.03;100.00;97978.31;4974993;28;1876;-80
2023/03/05 00:46:12;;;;;;;;;;;3.90;99.90;;;3.00;100.00;97983.50;4975072;28;1572;-80
2023/03/05 00:48:39;;;;;;;;;;;3.80;99.90;;;2.93;100.00;97982.66;4976684;28;1397;-80
2023/03/05 00:51:07;;;;;;;;;;;3.80;99.90;;;2.98;100.00;97975.78;4976767;28;1668;-80
2023/03/05 00:53:35;;;;;;;;;;;3.80;99.90;;;3.02;100.00;97971.50;4971226;28;1579;-80
2023/03/05 00:56:03;;;;;;;;;;;3.80;99.90;;;3.07;100.00;97965.47;4958415;28;1447;-80
2023/03/05 00:58:30;;;;;;;;;;;3.90;99.90;;;2.96;100.00;97964.69;4975033;28;1558;-80
2023/03/05 01:00:59;;;;;;;;;;;3.90;99.90;;;3.04;100.00;97969.78;4972949;28;1714;-79
2023/03/05 01:03:26;;;;;;;;;;;3.80;99.90;;;3.06;100.00;97962.94;4972272;28;1907;-82
2023/03/05 01:05:54;;;;;;;;;;;3.80;99.90;;;3.08;100.00;97967.19;4971864;28;1428;-80
2023/03/05 01:08:22;;;;;;;;;;;3.80;99.90;;;3.17;100.00;97957.72;4975225;28;1403;-80
2023/03/05 01:10:50;;;;;;;;;;;3.90;99.90;;;3.11;100.00;97956.06;4961574;28;1471;-80
2023/03/05 01:13:17;;;;;;;;;;;3.90;99.90;;;3.01;100.00;97955.28;4975704;28;1505;-81
2023/03/05 01:15:46;;;;;;;;;;;3.90;99.90;;;3.01;100.00;97962.09;4978188;28;1890;-81
2023/03/05 01:18:13;;;;;;;;;;;3.90;99.90;;;2.89;100.00;97953.63;4974658;28;1451;-80
2023/03/05 01:20:41;;;;;;;;;;;3.80;99.90;;;2.81;100.00;97957.13;4961350;28;1514;-80
2023/03/05 01:23:10;;;;;;;;;;;3.70;99.90;;;2.83;100.00;97960.50;4959579;28;1895;-80
2023/03/05 01:25:37;;;;;;;;;;;3.70;99.90;;;2.85;100.00;97957.09;4975097;28;1399;-80
2023/03/05 01:28:04;;;;;;;;;;;3.70;99.90;;;3.04;100.00;97954.41;4975460;28;1476;-80
2023/03/05 01:30:32;;;;;;;;;;;3.70;99.90;;;3.05;100.00;97945.84;4957663;28;1404;-79
2023/03/05 01:32:59;;;;;;;;;;;3.80;99.90;;;2.89;100.00;97951.06;4973584;28;2115;-80
2023/03/05 01:35:28;;;;;;;;;;;3.80;99.90;;;2.98;100.00;97941.63;4961944;28;1666;-80
2023/03/05 01:37:55;;;;;;;;;;;3.80;99.90;;;2.87;100.00;97944.25;4974289;28;1462;-80
2023/03/05 01:40:28;;;;;;;;;;;3.70;99.90;;;2.98;100.00;97942.47;4972951;28;1352;-80
2023/03/05 01:43:00;;;;;;;;;;;3.80;99.90;;;2.81;100.00;97940.00;4973291;28;1970;-80
2023/03/05 01:45:31;;;;;;;;;;;3.70;99.90;;;2.64;100.00;97945.22;4974449;28;1682;-80
2023/03/05 01:47:58;;;;;;;;;;;3.60;99.90;;;2.76;100.00;97944.31;4980921;28;1450;-80
2023/03/05 01:50:25;;;;;;;;;;;3.60;99.90;;;2.66;100.00;97938.38;4963357;28;1524;-79
2023/03/05 01:52:57;;;;;;;;;;;3.60;99.90;;;2.68;100.00;97946.91;4976777;28;1584;-80
2023/03/05 01:55:27;;;;;;;;;;;3.50;99.90;;;2.61;100.00;97934.13;4971785;28;1467;-80
2023/03/05 01:58:00;;;;;;;;;;;3.50;99.90;;;2.60;100.00;97940.09;4954567;28;1336;-80
2023/03/05 02:00:30;;;;;;;;;;;3.40;99.90;;;2.59;100.00;97938.41;4970102;28;1990;-79
2023/03/05 02:03:04;;;;;;;;;;;3.40;99.90;;;2.66;100.00;97934.97;4971165;28;1990;-80
2023/03/05 02:05:34;;;;;;;;;;;3.50;99.90;;;2.73;100.00;97928.94;4969497;28;1410;-80
2023/03/05 02:08:05;;;;;;;;;;;3.50;99.90;;;2.75;100.00;97922.09;4957463;28;1987;-80
2023/03/05 02:10:35;;;;;;;;;;;3.50;99.90;;;2.82;100.00;97923.75;4969304;28;1550;-80
2023/03/05 02:13:06;;;;;;;;;;;3.60;99.90;;;2.58;100.00;97919.63;4969316;28;1466;-80
2023/03/05 02:15:34;;;;;;;;;;;3.50;99.90;;;2.68;100.00;97918.72;4972676;28;1395;-81
2023/03/05 02:18:01;;;;;;;;;;;3.50;99.90;;;2.58;100.00;97916.19;4972481;28;1433;-80
2023/03/05 02:20:31;;;;;;;;;;;3.50;99.90;;;2.66;100.00;97910.19;4970902;28;1534;-80
2023/03/05 02:22:58;;;;;;;;;;;3.50;99.90;;;2.64;100.00;97911.91;4976401;28;1986;-79
2023/03/05 02:25:27;;;;;;;;;;;3.50;99.90;;;2.71;100.00;97905.03;4987943;28;1413;-80
2023/03/05 02:27:58;;;;;;;;;;;3.50;99.90;;;2.73;100.00;97901.59;4974417;28;1104;-80
2023/03/05 02:30:26;;;;;;;;;;;3.50;99.90;;;2.60;100.00;97904.22;4974880;28;1412;-80
2023/03/05 02:32:53;;;;;;;;;;;3.60;99.90;;;2.50;100.00;97900.88;4979264;28;1461;-81
2023/03/05 02:35:20;;;;;;;;;;;3.50;99.90;;;2.46;100.00;97901.75;4962942;28;1409;-80
2023/03/05 02:37:49;;;;;;;;;;;3.40;99.90;;;2.33;100.00;97900.09;4972166;28;1054;-80
2023/03/05 02:40:17;;;;;;;;;;;3.30;99.90;;;2.43;100.00;97897.50;4975087;28;1270;-80
2023/03/05 02:42:44;;;;;;;;;;;3.30;99.90;;;2.53;100.00;97900.00;4971489;28;1111;-80
2023/03/05 02:45:12;;;;;;;;;;;3.30;99.90;;;2.60;100.00;97891.41;4979993;28;1935;-80
2023/03/05 02:47:39;;;;;;;;;;;3.50;99.90;;;2.71;100.00;97892.22;4992516;28;1077;-80
2023/03/05 02:50:09;;;;;;;;;;;3.50;99.90;;;2.70;100.00;97893.94;4976444;28;1360;-80
2023/03/05 02:52:36;;;;;;;;;;;3.50;99.90;;;2.72;100.00;97886.25;4980397;28;1132;-80
2023/03/05 02:55:05;;;;;;;;;;;3.50;99.90;;;2.67;100.00;97890.53;4955923;28;1514;-80
2023/03/05 02:57:32;;;;;;;;;;;3.50;99.90;;;2.81;100.00;97882.78;4976473;28;1586;-80
2023/03/05 02:59:59;;;;;;;;;;;3.60;99.90;;;2.69;100.00;97878.53;4970100;28;1569;-80
2023/03/05 03:02:26;;;;;;;;;;;3.50;99.90;;;2.66;100.00;97873.44;4976800;28;1277;-80
2023/03/05 03:04:53;;;;;;;;;;;3.50;99.90;;;2.46;100.00;97884.69;4972715;28;1883;-81
2023/03/05 03:07:20;;;;;;;;;;;3.50;99.90;;;2.55;100.00;97875.22;4959279;28;1689;-81
2023/03/05 03:09:47;;;;;;;;;;;3.40;99.90;;;2.61;100.00;97876.03;4989555;28;1274;-80
2023/03/05 03:12:14;;;;;;;;;;;3.40;99.90;;;2.56;100.00;97875.22;4974689;28;1201;-80
2023/03/05 03:14:42;;;;;;;;;;;3.40;99.90;;;2.53;100.00;97877.78;4964493;28;1416;-80
2023/03/05 03:17:12;;;;;;;;;;;3.40;99.90;;;2.56;100.00;97861.56;4958827;28;1400;-81
2023/03/05 03:19:40;;;;;;;;;;;3.30;99.90;;;2.68;100.00;97867.44;4944982;28;1273;-80
2023/03/05 03:22:08;;;;;;;;;;;3.40;99.90;;;2.69;100.00;97860.59;4976801;28;1232;-80
2023/03/05 03:24:36;;;;;;;;;;;3.50;99.90;;;2.78;100.00;97860.53;4992631;28;1930;-81
2023/03/05 03:27:03;;;;;;;;;;;3.50;99.90;;;2.67;100.00;97863.19;4977415;28;1046;-80
2023/03/05 03:29:30;;;;;;;;;;;3.50;99.90;;;2.69;100.00;97853.78;4979628;28;1364;-80
2023/03/05 03:31:58;;;;;;;;;;;3.50;99.90;;;2.76;100.00;97857.16;4977809;28;1011;-80
2023/03/05 03:34:25;;;;;;;;;;;3.50;99.90;;;2.55;100.00;97849.59;4980878;28;1261;-79
2023/03/05 03:36:52;;;;;;;;;;;3.50;99.90;;;2.71;100.00;97853.75;4977366;28;1089;-79
2023/03/05 03:39:20;;;;;;;;;;;3.50;99.90;;;2.67;100.00;97847.81;4983377;28;1380;-79
2023/03/05 03:41:50;;;;;;;;;;;3.50;99.90;;;2.63;100.00;97843.56;4980670;28;1069;-79
2023/03/05 03:44:19;;;;;;;;;;;3.50;99.90;;;2.63;100.00;97835.88;4981578;28;1964;-79
2023/03/05 03:46:49;;;;;;;;;;;3.50;99.90;;;2.62;100.00;97833.31;4963499;28;1575;-80
2023/03/05 03:49:18;;;;;;;;;;;3.50;99.90;;;2.60;100.00;97829.91;4981739;28;1225;-80
2023/03/05 03:51:47;;;;;;;;;;;3.40;99.90;;;2.62;100.00;97830.75;4975730;28;1222;-80
2023/03/05 03:54:15;;;;;;;;;;;3.40;99.90;;;2.45;100.00;97830.88;4975306;28;1391;-80
2023/03/05 03:56:43;;;;;;;;;;;3.40;99.90;;;2.33;100.00;97838.63;4975491;28;1380;-80
2023/03/05 03:59:10;;;;;;;;;;;3.30;99.90;;;2.29;100.00;97838.66;4963342;28;1592;-80
2023/03/05 04:01:37;;;;;;;;;;;3.20;99.90;;;2.25;100.00;97834.41;4978523;28;1856;-80
2023/03/05 04:04:05;;;;;;;;;;;3.10;99.90;;;2.30;100.00;97836.94;4975132;28;1891;-80
2023/03/05 04:06:32;;;;;;;;;;;3.10;99.90;;;2.22;100.00;97842.09;4974375;28;1019;-81
2023/03/05 04:08:59;;;;;;;;;;;3.10;99.90;;;2.18;100.00;97842.13;4974443;28;1321;-80
2023/03/05 04:11:26;;;;;;;;;;;3.00;99.90;;;2.17;100.00;97833.59;4977636;28;1113;-79
2023/03/05 04:13:53;;;;;;;;;;;3.00;99.90;;;2.11;100.00;97835.34;4979165;28;1447;-80
2023/03/05 04:16:20;;;;;;;;;;;2.90;99.90;;;2.07;100.00;97837.91;4976874;28;1385;-80
2023/03/05 04:18:47;;;;;;;;;;;2.90;99.90;;;2.17;100.00;97836.16;4981953;28;1291;-80
2023/03/05 04:21:14;;;;;;;;;;;2.90;99.90;;;2.22;100.00;97839.53;4964384;28;1477;-80
2023/03/05 04:23:44;;;;;;;;;;;3.00;99.90;;;2.18;100.00;97840.41;4974437;28;1903;-81
2023/03/05 04:26:10;;;;;;;;;;;3.10;99.90;;;2.32;100.00;97832.66;4978617;28;1065;-80
2023/03/05 04:28:37;;;;;;;;;;;3.10;99.90;;;2.19;100.00;97837.00;4972580;28;1418;-79
2023/03/05 04:31:05;;;;;;;;;;;3.10;99.90;;;2.14;100.00;97828.47;4969704;28;1537;-80
2023/03/05 04:33:32;;;;;;;;;;;3.00;99.90;;;2.14;100.00;97830.19;4973590;28;1451;-80
2023/03/05 04:36:00;;;;;;;;;;;3.00;99.90;;;2.24;100.00;97821.63;4971480;28;1450;-79
2023/03/05 04:38:26;;;;;;;;;;;3.00;99.90;;;2.25;100.00;97831.00;4972809;28;1035;-80
2023/03/05 04:40:53;;;;;;;;;;;3.00;99.90;;;2.24;100.00;97829.31;4975270;28;1376;-80
2023/03/05 04:43:21;;;;;;;;;;;3.10;99.90;;;2.27;100.00;97829.28;4967345;28;1417;-79
2023/03/05 04:45:48;;;;;;;;;;;3.10;99.90;;;2.30;100.00;97827.56;4974163;28;1922;-80
2023/03/05 04:48:15;;;;;;;;;;;3.10;99.90;;;2.37;100.00;97827.50;4986310;28;1208;-80
2023/03/05 04:50:45;;;;;;;;;;;3.10;99.90;;;2.37;100.00;97824.94;4971125;28;1233;-80
2023/03/05 04:53:12;;;;;;;;;;;3.10;99.90;;;2.36;100.00;97818.97;4989315;28;1010;-80
2023/03/05 04:55:39;;;;;;;;;;;3.10;99.90;;;2.37;100.00;97817.25;4971688;28;1428;-80
2023/03/05 04:58:05;;;;;;;;;;;3.20;99.90;;;2.20;100.00;97819.94;4970780;28;1139;-80
2023/03/05 05:00:34;;;;;;;;;;;3.20;99.90;;;2.31;100.00;97815.59;4977875;28;1170;-80
2023/03/05 05:03:01;;;;;;;;;;;3.10;99.90;;;2.28;100.00;97823.28;4970601;28;1208;-79
2023/03/05 05:05:28;;;;;;;;;;;3.10;99.90;;;2.34;100.00;97822.41;4984556;28;2009;-79
2023/03/05 05:07:56;;;;;;;;;;;3.20;99.90;;;2.34;100.00;97815.56;4959809;28;1184;-82
2023/03/05 05:10:24;;;;;;;;;;;3.10;99.90;;;2.38;100.00;97819.81;4969936;28;1351;-81
2023/03/05 05:12:51;;;;;;;;;;;3.20;99.90;;;2.43;100.00;97814.66;4969762;28;1320;-79
2023/03/05 05:15:20;;;;;;;;;;;3.20;99.90;;;2.43;100.00;97812.09;4975003;28;1365;-80
2023/03/05 05:17:48;;;;;;;;;;;3.20;99.90;;;2.39;100.00;97806.13;4955576;28;1541;-80
2023/03/05 05:20:16;;;;;;;;;;;3.20;99.90;;;2.43;100.00;97804.41;4973694;28;1537;-80
2023/03/05 05:22:45;;;;;;;;;;;3.20;99.90;;;2.34;100.00;97804.47;4972780;28;1420;-80
2023/03/05 05:25:12;;;;;;;;;;;3.20;99.90;;;2.25;100.00;97803.66;4972178;28;1880;-80
2023/03/05 05:27:40;;;;;;;;;;;3.20;99.90;;;2.30;100.00;97807.06;4969326;28;1033;-80
2023/03/05 05:30:07;;;;;;;;;;;3.20;99.90;;;2.37;100.00;97805.28;4972776;28;1609;-79
2023/03/05 05:32:35;;;;;;;;;;;3.20;99.90;;;2.32;100.00;97813.88;4952933;28;1394;-80
2023/03/05 05:35:03;;;;;;;;;;;3.10;99.90;;;2.26;100.00;97805.38;4974861;28;1394;-80
2023/03/05 05:37:30;;;;;;;;;;;3.10;99.90;;;2.29;100.00;97810.47;4973989;28;1043;-80
2023/03/05 05:39:57;;;;;;;;;;;3.10;99.90;;;2.34;100.00;97800.19;4971952;28;1379;-79
2023/03/05 05:42:25;;;;;;;;;;;3.20;99.90;;;2.32;100.00;97795.94;4971963;28;1248;-79
2023/03/05 05:44:52;;;;;;;;;;;3.20;99.90;;;2.37;100.00;97797.59;4974398;28;1974;-80
2023/03/05 05:47:19;;;;;;;;;;;3.20;99.90;;;2.41;100.00;97798.44;4973586;28;1214;-80
2023/03/05 05:49:46;;;;;;;;;;;3.20;99.90;;;2.31;100.00;97797.66;4973391;28;1196;-80
2023/03/05 05:52:13;;;;;;;;;;;3.20;99.90;;;2.40;100.00;97794.19;4968934;28;1068;-80
2023/03/05 05:54:41;;;;;;;;;;;3.20;99.90;;;2.51;100.00;97793.25;4952709;28;1431;-80
2023/03/05 05:57:08;;;;;;;;;;;3.30;99.90;;;2.48;100.00;97795.81;4970250;28;1310;-80
2023/03/05 05:59:37;;;;;;;;;;;3.30;99.90;;;2.42;100.00;97790.75;4969050;28;1395;-80
2023/03/05 06:02:06;;;;;;;;;;;3.30;99.90;;;2.47;100.00;97781.31;4973929;28;1571;-80
2023/03/05 06:04:35;;;;;;;;;;;3.40;99.90;;;2.40;100.00;97783.94;4985376;28;1973;-80
2023/03/05 06:07:02;;;;;;;;;;;3.30;99.90;;;2.36;100.00;97774.59;4971440;28;1136;-79
2023/03/05 06:09:30;;;;;;;;;;;3.20;99.90;;;2.35;100.00;97771.19;4970285;28;1278;-80
2023/03/05 06:11:57;;;;;;;;;;;3.30;99.90;;;2.49;100.00;97776.19;4977340;28;1054;-80
2023/03/05 06:14:25;;;;;;;;;;;3.30;99.90;;;2.50;100.00;97776.16;4977160;28;1437;-80
2023/03/05 06:16:52;;;;;;;;;;;3.30;99.90;;;2.51;100.00;97770.19;4973479;28;1422;-80
2023/03/05 06:19:19;;;;;;;;;;;3.30;99.90;;;2.49;100.00;97776.19;4972018;28;1410;-80
2023/03/05 06:21:45;;;;;;;;;;;3.30;99.90;;;2.56;100.00;97774.44;4971652;28;1181;-80
2023/03/05 06:24:21;;;;;;;;;;;3.30;99.90;;;2.46;100.00;97763.41;4976554;28;1987;-82
2023/03/05 06:26:49;;;;;;;;;;;3.30;99.90;;;2.54;100.00;97771.03;4961298;28;1498;-80
2023/03/05 06:29:16;;;;;;;;;;;3.40;99.90;;;2.46;100.00;97766.81;4974273;28;1234;-80
2023/03/05 06:31:43;;;;;;;;;;;3.40;99.90;;;2.46;100.00;97763.41;4976929;28;1435;-79
2023/03/05 06:34:11;;;;;;;;;;;3.30;99.90;;;2.52;100.00;97763.34;4979459;28;1431;-80
2023/03/05 06:36:39;;;;;;;;;;;3.40;99.90;;;2.37;100.00;97764.31;4971497;28;1171;-80
2023/03/05 06:39:06;;;;;;;;;;;3.30;99.90;;;2.56;100.00;97767.59;4974742;28;1402;-80
2023/03/05 06:41:33;;;;;;;;;;;3.40;99.90;;;2.51;100.00;97765.06;4963422;28;1360;-80
2023/03/05 06:44:02;;;;;;;;;;;3.40;99.90;;;2.40;100.00;97759.19;4976558;28;1907;-80
2023/03/05 06:46:34;;;;;;;;;;;3.30;99.90;;;2.34;100.00;97754.09;4976458;28;1022;-81
2023/03/05 06:49:02;;;;;;;;;;;3.30;99.90;;;2.37;100.00;97766.03;4976304;28;1466;-80
2023/03/05 06:51:34;;;;;;;;;;;3.30;99.90;;;2.48;100.00;97761.66;4970673;28;1469;-80
2023/03/05 06:54:03;;;;;;;;;;;3.40;99.90;;;2.44;100.00;97760.00;4985704;28;1572;-80
2023/03/05 06:56:31;;;;;;;;;;;3.40;99.90;;;2.38;100.00;97760.91;4981170;28;1952;-80
2023/03/05 06:59:00;;;;;;;;;;;3.40;99.90;;;2.30;100.00;97753.28;4975665;28;1501;-80
2023/03/05 07:01:30;;;;;;;;;;;3.40;99.90;;;2.37;100.00;97758.34;4983832;28;1256;-80
2023/03/05 07:04:02;;;;;;;;;;;3.40;99.90;;;2.45;100.00;97754.88;4975698;28;1309;-81
2023/03/05 07:06:35;;;;;;;;;;;3.40;99.90;;;2.54;100.00;97753.94;4980004;28;1683;-79
2023/03/05 07:09:05;;;;;;;;;;;3.50;99.90;;;2.57;100.00;97759.03;4982301;28;1606;-80
2023/03/05 07:11:35;;;;;;;;;;;3.50;99.90;;;2.54;100.00;97746.25;4987500;28;1178;-80
2023/03/05 07:14:03;;;;;;;;;;;3.50;99.90;;;2.43;100.00;97743.78;4979389;28;1372;-80
2023/03/05 07:16:32;;;;;;;;;;;3.50;99.90;;;2.52;100.00;97750.53;4974613;28;1390;-80
2023/03/05 07:19:05;;;;;;;;;;;3.60;99.90;;;2.65;100.00;97748.75;4976841;28;1577;-80
2023/03/05 07:21:33;;;;;;;;;;;3.60;99.90;;;2.68;100.00;97744.44;4976336;28;1499;-80
2023/03/05 07:24:05;;;;;;;;;;;3.70;99.90;;;2.75;100.00;97746.94;4973917;28;1376;-81
2023/03/05 07:26:33;;;;;;;;;;;3.70;99.90;;;2.79;100.00;97743.50;4975619;28;1944;-81
2023/03/05 07:29:01;;;;;;;;;;;3.80;99.90;;;2.80;100.00;97735.78;4974741;28;1332;-80
2023/03/05 07:31:30;;;;;;;;;;;3.90;99.90;;;2.97;100.00;97734.78;4978962;28;1426;-81
2023/03/05 07:33:59;;;;;;;;;;;4.00;99.90;;;3.06;100.00;97732.97;4976902;28;1317;-80
2023/03/05 07:36:38;;;;;;;;;;;4.10;99.90;;;2.99;100.00;97730.47;4959169;28;1029;-80
2023/03/05 07:39:05;;;;;;;;;;;4.10;99.90;;;2.87;100.00;97723.75;4983031;28;1336;-80
2023/03/05 07:41:33;;;;;;;;;;;4.10;99.90;;;3.00;100.00;97722.78;4974386;28;1001;-80
2023/03/05 07:44:00;;;;;;;;;;;4.10;99.90;;;2.82;100.00;97726.34;4977260;28;1733;-80
2023/03/05 07:46:31;;;;;;;;;;;4.20;99.90;;;3.02;100.00;97723.59;4978965;28;2020;-81
2023/03/05 07:48:58;;;;;;;;;;;4.20;99.90;;;3.27;100.00;97728.47;4966344;28;1296;-81
2023/03/05 07:51:26;;;;;;;;;;;4.30;99.90;;;3.26;100.00;97716.50;4981847;28;1065;-81
2023/03/05 07:53:54;;;;;;;;;;;4.40;99.90;;;3.31;100.00;97720.75;4977134;28;1440;-81
2023/03/05 07:56:41;;;;;;;;;;;4.40;99.90;;;3.12;100.00;97719.22;4976582;28;1298;-81
2023/03/05 07:59:10;;;;;;;;;;;4.40;99.90;;;3.25;100.00;97719.94;4978701;28;1260;-81
2023/03/05 08:01:38;;;;;;;;;;;4.30;99.90;;;3.13;100.00;97718.38;4984058;28;1284;-80
2023/03/05 08:04:10;;;;;;;;;;;4.20;99.90;;;3.23;100.00;97722.53;4979579;28;1364;-81
2023/03/05 08:06:40;;;;;;;;;;;4.20;99.90;;;3.00;100.00;97720.22;4976853;28;1875;-81
2023/03/05 08:09:08;;;;;;;;;;;4.20;99.90;;;2.82;100.00;97723.78;4974868;28;1308;-81
2023/03/05 08:11:34;;;;;;;;;;;4.20;99.90;;;2.79;100.00;97723.84;4979622;28;1105;-80
2023/03/05 08:14:03;;;;;;;;;;;4.20;99.90;;;2.94;100.00;97717.69;4980226;28;1376;-81
2023/03/05 08:16:30;;;;;;;;;;;4.10;99.90;;;3.21;100.00;97714.00;4977814;28;1336;-80
2023/03/05 08:18:59;;;;;;;;;;;4.20;99.90;;;3.08;100.00;97718.44;4979515;28;1348;-81
2023/03/05 08:21:37;;;;;;;;;;;4.30;99.90;;;3.17;100.00;97714.03;4976437;28;1077;-80
2023/03/05 08:24:07;;;;;;;;;;;4.40;99.90;;;3.41;100.00;97713.78;4978239;28;1491;-80
2023/03/05 08:26:37;;;;;;;;;;;4.50;99.90;;;3.42;100.00;97706.91;4982701;28;1985;-80
2023/03/05 08:29:05;;;;;;;;;;;4.60;99.90;;;3.56;100.00;97700.75;4976630;28;1256;-80
2023/03/05 08:31:32;;;;;;;;;;;4.70;99.90;;;3.28;100.00;97697.66;4965101;28;1339;-81
2023/03/05 08:34:01;;;;;;;;;;;4.60;99.90;;;3.14;100.00;97697.81;4980031;28;1565;-80
2023/03/05 08:36:28;;;;;;;;;;;4.50;99.90;;;3.13;100.00;97692.72;4979558;28;1721;-81
2023/03/05 08:38:55;;;;;;;;;;;4.40;99.90;;;3.22;100.00;97697.75;4975719;28;1329;-80
2023/03/05 08:41:22;;;;;;;;;;;4.40;99.90;;;3.27;100.00;97695.13;4981634;28;1530;-81
2023/03/05 08:43:50;;;;;;;;;;;4.50;99.90;;;3.40;100.00;97695.81;4973186;28;1468;-80
2023/03/05 08:46:17;;;;;;;;;;;4.50;99.90;;;3.50;100.00;97694.84;4976559;28;1986;-81
2023/03/05 08:48:45;;;;;;;;;;;4.60;99.90;;;3.42;100.00;97696.66;4965277;28;1502;-81
2023/03/05 08:51:18;;;;;;;;;;;4.60;99.90;;;3.60;100.00;97700.72;4979571;28;1637;-81
2023/03/05 08:53:46;;;;;;;;;;;4.70;99.90;;;3.32;100.00;97691.63;4970482;28;1379;-80
2023/03/05 08:56:14;;;;;;;;;;;4.60;99.90;;;3.48;100.00;97697.44;4977132;28;1642;-80
2023/03/05 08:58:44;;;;;;;;;;;4.80;99.90;;;3.75;100.00;97695.38;4970737;28;1406;-80
2023/03/05 09:01:13;;;;;;;;;;;4.90;99.90;;;3.50;100.00;97692.28;4972972;28;1484;-80
2023/03/05 09:03:41;;;;;;;;;;;5.00;99.90;;;3.49;100.00;97696.56;4970968;28;1616;-81
2023/03/05 09:06:11;;;;;;;;;;;4.80;99.90;;;3.56;100.00;97695.63;4978878;28;1923;-81
2023/03/05 09:08:38;;;;;;;;;;;4.80;99.90;;;3.65;100.00;97689.53;4962137;28;1538;-81
2023/03/05 09:11:06;;;;;;;;;;;4.80;99.90;;;3.65;100.00;97691.22;4958832;28;1504;-81
2023/03/05 09:13:33;;;;;;;;;;;4.80;99.90;;;3.35;100.00;97685.63;4960988;28;1575;-80
2023/03/05 09:16:04;;;;;;;;;;;4.70;99.90;;;3.29;100.00;97678.00;4976475;28;1392;-80
2023/03/05 09:18:35;;;;;;;;;;;4.50;99.90;;;3.37;100.00;97683.03;4979565;28;1636;-80
2023/03/05 09:21:08;;;;;;;;;;;4.60;99.90;;;3.55;100.00;97675.94;4976942;28;1474;-80
2023/03/05 09:23:36;;;;;;;;;;;4.70;99.90;;;3.60;100.00;97678.44;4989075;28;1386;-80
2023/03/05 09:26:05;;;;;;;;;;;4.80;99.90;;;4.00;100.00;97671.94;4972639;28;1887;-80
2023/03/05 09:28:32;;;;;;;;;;;5.00;99.90;;;4.06;100.00;97665.00;4973738;28;1457;-80
2023/03/05 09:31:03;;;;;;;;;;;5.20;99.90;;;4.15;100.00;97657.13;4972559;28;1407;-80
2023/03/05 09:33:31;;;;;;;;;;;5.30;99.90;;;3.77;100.00;97661.13;4975319;28;1418;-80
2023/03/05 09:35:59;;;;;;;;;;;5.20;99.90;;;3.36;100.00;97656.53;4975421;28;1657;-80
2023/03/05 09:38:27;;;;;;;;;;;5.30;99.90;;;3.61;100.00;97648.53;4971581;28;1521;-80
2023/03/05 09:41:06;;;;;;;;;;;5.20;99.90;;;3.93;100.00;97656.59;4976664;28;1500;-80
2023/03/05 09:43:46;;;;;;;;;;;5.20;99.90;;;4.26;100.00;97643.25;4979069;28;1609;-79
2023/03/05 09:46:21;;;;;;;;;;;5.30;99.90;;;4.01;100.00;97641.06;4976119;28;1907;-79
2023/03/05 09:49:03;;;;;;;;;;;5.20;99.90;;;4.00;100.00;97636.81;4973973;28;1666;-80
2023/03/05 09:51:34;;;;;;;;;;;5.20;99.90;;;4.26;100.00;97636.38;4973614;28;1444;-79
2023/03/05 09:54:15;;;;;;;;;;;5.50;99.90;;;4.54;100.00;97625.66;4967220;28;1523;-80
2023/03/05 09:56:52;;;;;;;;;;;5.60;99.90;;;4.30;100.00;97622.63;4973140;28;1594;-80
2023/03/05 09:59:40;;;;;;;;;;;5.60;99.90;;;4.17;100.00;97619.44;4974450;28;1566;-79
2023/03/05 10:02:21;;;;;;;;;;;5.50;99.90;;;3.91;100.00;97614.69;4974645;28;1465;-82
2023/03/05 10:04:51;;;;;;;;;;;5.50;99.90;;;4.00;100.00;97623.13;4974036;28;1730;-81
2023/03/05 10:07:21;;;;;;;;;;;5.30;99.90;;;4.06;100.00;97623.03;4990047;28;1425;-84
2023/03/05 10:10:22;;;;;;;;;;;5.30;99.90;;;4.14;100.00;97618.63;4977397;28;1721;-80
2023/03/05 10:12:56;;;;;;;;;;;5.30;99.90;;;4.36;100.00;97607.09;4963836;28;1764;-80
2023/03/05 10:15:50;;;;;;;;;;;5.50;99.90;;;4.07;100.00;97612.72;4973656;28;1603;-79
2023/03/05 10:18:29;;;;;;;;;;;5.40;99.90;;;3.79;100.00;97609.75;4961901;28;1113;-79
2023/03/05 10:21:29;;;;;;;;;;;5.10;99.90;;;3.67;100.00;97608.22;4970762;28;1423;-79
2023/03/05 10:24:02;;;;;;;;;;;5.00;99.90;;;3.91;100.00;97614.69;4972856;28;1456;-80
2023/03/05 10:26:39;;;;;;;;;;;5.10;99.90;;;4.09;100.00;97599.88;4973966;28;1883;-79
2023/03/05 10:29:42;;;;;;;;;;;5.20;99.90;;;4.10;100.00;97601.56;4979495;28;1308;-79
2023/03/05 10:32:35;;;;;;;;;;;5.40;99.90;;;4.32;100.00;97596.91;4960275;28;1098;-79
2023/03/05 10:35:04;;;;;;;;;;;5.50;99.90;;;4.25;100.00;97597.91;4986142;28;1172;-79
2023/03/05 10:38:02;;;;;;;;;;;5.50;99.90;;;4.21;100.00;97593.69;4973415;28;1594;-79
2023/03/05 10:40:51;;;;;;;;;;;5.50;99.90;;;4.34;100.00;97590.88;4969430;28;1245;-80
2023/03/05 10:43:39;;;;;;;;;;;5.50;99.90;;;4.40;100.00;97592.47;4977461;28;1667;-80
2023/03/05 10:46:15;;;;;;;;;;;5.60;99.90;;;4.46;100.00;97588.94;4978579;28;1957;-79
2023/03/05 10:48:52;;;;;;;;;;;5.70;99.90;;;4.61;100.00;97588.69;4975323;28;1669;-80
2023/03/05 10:51:24;;;;;;;;;;;5.70;99.90;;;4.16;100.00;97586.88;4960576;28;1273;-80
2023/03/05 10:53:54;;;;;;;;;;;5.50;99.90;;;3.84;100.00;97586.56;4967758;28;1444;-80
2023/03/05 10:56:23;;;;;;;;;;;5.40;99.90;;;4.22;100.00;97580.81;4979471;28;1292;-79
2023/03/05 10:58:51;;;;;;;;;;;5.40;99.90;;;4.08;100.00;97580.19;4975133;28;1284;-79
2023/03/05 11:01:44;;;;;;;;;;;5.50;99.90;;;3.77;100.00;97581.53;4978309;28;1384;-79
2023/03/05 11:04:30;;;;;;;;;;;5.40;99.90;;;3.93;100.00;97582.13;4976237;28;1277;-80
2023/03/05 11:06:57;;;;;;;;;;;5.30;99.90;;;4.21;100.00;97573.97;4977452;28;1994;-80
2023/03/05 11:09:33;;;;;;;;;;;5.30;99.90;;;4.16;100.00;97570.63;4981944;28;1489;-80
2023/03/05 11:12:04;;;;;;;;;;;5.40;99.90;;;3.98;100.00;97574.34;4975971;28;1019;-82
2023/03/05 11:14:32;;;;;;;;;;;5.40;99.90;;;3.88;100.00;97573.66;4996156;28;1414;-79
2023/03/05 11:17:03;;;;;;;;;;;5.30;99.90;;;4.05;100.00;97565.66;4966808;28;1156;-79
2023/03/05 11:19:32;;;;;;;;;;;5.30;99.90;;;3.97;100.00;97562.41;4978234;28;1328;-80
2023/03/05 11:22:11;;;;;;;;;;;5.30;99.90;;;3.58;100.00;97568.97;4977900;28;1006;-80
2023/03/05 11:24:40;;;;;;;;;;;5.30;99.90;;;3.52;100.00;97575.06;4978261;28;1388;-80
2023/03/05 11:27:23;;;;;;;;;;;5.20;99.90;;;3.84;100.00;97566.88;4979811;28;1891;-80
2023/03/05 11:29:50;;;;;;;;;;;5.10;99.90;;;3.74;100.00;97562.75;4982631;28;1489;-80
2023/03/05 11:32:26;;;;;;;;;;;5.10;99.90;;;3.85;100.00;97562.56;4960606;28;1057;-80
2023/03/05 11:34:54;;;;;;;;;;;5.10;99.90;;;4.28;100.00;97556.72;4981826;28;1275;-80
2023/03/05 11:37:27;;;;;;;;;;;5.20;99.90;;;4.17;100.00;97546.63;4975851;28;1331;-79
2023/03/05 11:40:13;;;;;;;;;;;5.30;99.90;;;4.08;100.00;97562.19;4976337;28;1418;-79
2023/03/05 11:42:41;;;;;;;;;;;5.30;99.90;;;3.87;100.00;97548.84;4977854;28;1355;-80
2023/03/05 11:45:15;;;;;;;;;;;5.30;99.90;;;3.84;100.00;97551.47;4978774;28;1447;-80
2023/03/05 11:47:50;;;;;;;;;;;5.30;99.90;;;4.28;100.00;97546.44;4989806;28;1797;-79